createdAt,value
2016-06-29T00:02:52.684Z,82.37
2016-06-29T00:07:52.665Z,82.27
2016-06-29T00:12:52.646Z,81.98
2016-06-29T00:17:52.635Z,83.14
2016-06-29T00:22:52.625Z,83.04
2016-06-29T00:27:52.636Z,82.94
2016-06-29T00:32:52.652Z,82.85
2016-06-29T00:37:52.589Z,83.14
2016-06-29T00:42:52.592Z,82.94
2016-06-29T00:47:52.591Z,82.81
2016-06-29T00:52:52.551Z,83.42
2016-06-29T00:57:52.537Z,83.29
2016-06-29T01:02:52.527Z,83.09
2016-06-29T01:07:52.508Z,83.29
2016-06-29T01:12:52.510Z,83.48
2016-06-29T01:17:52.477Z,83.86
2016-06-29T01:22:52.473Z,83.96
2016-06-29T01:27:52.451Z,83.67
2016-06-29T01:32:52.431Z,84.25
2016-06-29T01:37:52.427Z,83.77
2016-06-29T01:42:52.400Z,84.34
2016-06-29T01:47:52.387Z,84.06
2016-06-29T01:52:51.765Z,84.63
2016-06-29T01:57:52.370Z,84.34
2016-06-29T02:02:52.333Z,84.63
2016-06-29T02:07:51.722Z,84.69
2016-06-29T02:12:52.303Z,84.59
2016-06-29T02:17:52.298Z,84.5
2016-06-29T02:22:52.298Z,84.5
2016-06-29T02:27:52.273Z,84.4
2016-06-29T02:32:51.626Z,84.69
2016-06-29T02:37:52.231Z,84.88
2016-06-29T02:42:52.205Z,84.21
2016-06-29T02:47:51.593Z,84.4
2016-06-29T02:52:52.172Z,84.5
2016-06-29T02:57:52.168Z,84.63
2016-06-29T03:02:52.148Z,84.3
2016-06-29T03:07:52.158Z,84.21
2016-06-29T03:12:52.109Z,84.4
2016-06-29T03:17:52.126Z,84.5
2016-06-29T03:22:52.106Z,84.4
2016-06-29T03:27:52.075Z,84.59
2016-06-29T03:32:51.439Z,84.5
2016-06-29T03:37:52.034Z,84.21
2016-06-29T03:42:52.023Z,84.3
2016-06-29T03:47:52.019Z,84.59
2016-06-29T03:52:51.383Z,84.69
2016-06-29T03:57:51.966Z,84.59
2016-06-29T04:02:51.947Z,84.5
2016-06-29T04:07:51.934Z,84.11
2016-06-29T04:12:51.925Z,83.92
2016-06-29T04:17:51.932Z,83.73
2016-06-29T04:22:51.891Z,83.29
2016-06-29T04:27:51.268Z,82.71
2016-06-29T04:32:51.254Z,83.09
2016-06-29T04:37:51.835Z,82.32
2016-06-29T04:42:51.237Z,81.02
2016-06-29T04:47:51.826Z,80.63
2016-06-29T04:52:51.806Z,80.44
2016-06-29T04:57:51.804Z,80.29
2016-06-29T05:02:51.794Z,80.1
2016-06-29T05:07:51.791Z,80.68
2016-06-29T05:12:51.774Z,79.86
2016-06-29T05:17:51.770Z,80.38
2016-06-29T05:22:51.758Z,80.58
2016-06-29T05:27:51.762Z,80.63
2016-06-29T05:32:51.758Z,80.63
2016-06-29T05:37:51.114Z,80.63
2016-06-29T05:42:51.713Z,80.54
2016-06-29T05:47:51.697Z,80.63
2016-06-29T05:52:51.686Z,80.54
2016-06-29T05:57:51.689Z,80.63
2016-06-29T06:02:51.665Z,81.12
2016-06-29T06:07:51.061Z,81.21
2016-06-29T06:12:51.667Z,81.3
2016-06-29T06:17:51.631Z,81.5
2016-06-29T06:22:51.619Z,81.7
2016-06-29T06:27:51.603Z,81.3
2016-06-29T06:32:51.599Z,80.54
2016-06-29T06:37:51.601Z,80.35
2016-06-29T06:42:51.573Z,79.86
2016-06-29T06:47:51.582Z,80
2016-06-29T06:52:51.571Z,79.71
2016-06-29T06:57:51.560Z,79.71
2016-06-29T07:02:51.647Z,78.75
2016-06-29T07:07:51.567Z,78.94
2016-06-29T07:12:50.937Z,78.59
2016-06-29T07:17:51.524Z,78.88
2016-06-29T07:22:51.527Z,78.79
2016-06-29T07:27:51.535Z,78.79
2016-06-29T07:32:50.914Z,79.33
2016-06-29T07:37:51.510Z,79.03
2016-06-29T07:42:51.555Z,77.06
2016-06-29T07:47:51.501Z,74.66
2016-06-29T07:52:50.899Z,73.13
2016-06-29T07:57:51.498Z,72.72
2016-06-29T08:02:51.485Z,72.62
2016-06-29T08:07:51.491Z,72.81
2016-06-29T08:12:51.502Z,72.42
2016-06-29T08:17:51.545Z,73.36
2016-06-29T08:22:51.484Z,74.19
2016-06-29T08:27:51.496Z,72.42
2016-06-29T08:32:51.497Z,71.88
2016-06-29T08:37:51.487Z,72.1
2016-06-29T08:42:51.489Z,72.3
2016-06-29T08:47:51.503Z,70.14
2016-06-29T08:52:51.485Z,68.69
2016-06-29T08:57:51.486Z,68.6
2016-06-29T09:02:51.501Z,68.08
2016-06-29T09:07:51.485Z,68.79
2016-06-29T09:12:51.493Z,69.53
2016-06-29T09:17:51.510Z,70.72
2016-06-29T09:22:51.488Z,71.17
2016-06-29T09:27:51.503Z,70.84
2016-06-29T09:32:51.494Z,63.6
2016-06-29T09:37:50.891Z,66.05
2016-06-29T09:42:51.511Z,68.02
2016-06-29T09:47:51.488Z,67.24
2016-06-29T09:52:51.509Z,66.95
2016-06-29T09:57:51.506Z,66.11
2016-06-29T10:02:51.501Z,66.4
2016-06-29T10:07:51.503Z,65.92
2016-06-29T10:12:51.531Z,62.55
2016-06-29T10:17:51.513Z,64.59
2016-06-29T10:22:51.521Z,65.92
2016-06-29T10:27:51.524Z,66.6
2016-06-29T10:32:51.514Z,65.69
2016-06-29T10:37:51.509Z,63.95
2016-06-29T10:42:51.506Z,63.75
2016-06-29T10:47:50.925Z,61.29
2016-06-29T10:52:51.514Z,61.99
2016-06-29T10:57:51.535Z,64.29
2016-06-29T11:02:51.513Z,64.65
2016-06-29T11:07:51.515Z,64.59
2016-06-29T11:12:51.536Z,64.5
2016-06-29T11:17:51.545Z,63.95
2016-06-29T11:22:51.530Z,63.36
2016-06-29T11:27:51.538Z,64.36
2016-06-29T11:32:51.532Z,65.5
2016-06-29T11:37:51.556Z,65.92
2016-06-29T11:42:51.576Z,66.66
2016-06-29T11:47:51.546Z,64.24
2016-06-29T11:52:51.542Z,62.55
2016-06-29T11:57:51.549Z,63.01
2016-06-29T12:04:42.655Z,62.88
2016-06-29T12:09:42.623Z,65.24
2016-06-29T12:19:41.985Z,64.95
